1982 CHRIS:CHRIS_DAMIA:DAMIA (1982005S10105)


On this page: IBTrACS data - Map and Plots - Positions - Intensities - Original source data

Summary

Start Jan 5
End Jan 23
Basin SI
LMI 120 kt
Sources jtwc_sh
bom
reunion
td9636
neumann
In WMO? Yes
Previous storm 1982 CLARISSEE (SI)
Previous in basin 1982 CLARISSEE (SI)
Concurrent storms 1982 CLARISSEE (SI)
1982 CHRIS (SI)
1982 DAPHNE-FIFI (SI)
1982 BRUNO (SP)
1982 ERROL (SI)
1982 ABIGAIL (SP)
Next in basin 1982 DAPHNE-FIFI (SI)
Next storm 1982 DAPHNE-FIFI (SI)

top of page IBTrACS Data: File Access

top of page HURSAT Data: File Access

Image of storm

top of page Plots:

Map of storm track will not appear if FTP is down
Time series of cyclone Maximum Sustained Wind will not appear if FTP is down
Time series of cyclone Minimum Central Pressure will not appear if FTP is down

top of page Track Data:Position

jtwc_sh bom reunion td9636 neumann
Date Lat Lon Lat Lon Lat Lon Lat Lon Lat Lon
1982-01-05 00:00:00 -10.3 105.1
1982-01-05 06:00:00 -10.7 105.3
1982-01-05 12:00:00 -11.0 105.4
1982-01-05 18:00:00 -11.3 105.1
1982-01-06 00:00:00 -12.7 102.9 -11.4 104.7 -12.7 102.9 -12.7 102.9
1982-01-06 06:00:00 -12.7 102.4 -11.7 104.0 -12.7 102.4 -12.7 102.4
1982-01-06 12:00:00 -12.8 101.8 -12.1 103.0 -12.8 101.8 -12.8 101.8
1982-01-06 18:00:00 -12.9 101.2 -12.7 101.6 -12.9 101.2 -12.9 101.2
1982-01-07 00:00:00 -13.0 100.4 -13.1 100.5 -13.0 100.4 -13.0 100.4
1982-01-07 06:00:00 -13.2 99.2 -13.5 99.4 -13.2 99.2 -13.2 99.2
1982-01-07 12:00:00 -13.4 97.9 -13.7 98.4 -13.4 97.9 -13.4 97.9
1982-01-07 18:00:00 -13.6 96.7 -13.8 97.2 -13.6 96.7 -13.6 96.7
1982-01-08 00:00:00 -13.8 95.5 -13.8 95.6 -13.8 95.5 -13.8 95.5
1982-01-08 06:00:00 -13.8 94.4 -13.8 94.4 -13.8 94.5 -13.8 94.4
1982-01-08 12:00:00 -13.7 93.4 -13.8 93.2 -13.7 93.4 -13.7 93.4
1982-01-08 18:00:00 -13.7 92.2 -13.8 91.8 -13.7 92.2 -13.7 92.2
1982-01-09 00:00:00 -13.6 91.0 -13.8 91.0 -13.6 91.0 -13.6 91.0
1982-01-09 06:00:00 -13.5 89.7 -13.8 89.4 -13.5 89.7 -13.5 89.7
1982-01-09 12:00:00 -13.3 88.3 -13.4 88.1 -13.3 88.3 -13.3 88.3
1982-01-09 18:00:00 -13.0 87.0 -13.1 87.0 -13.0 87.0 -13.0 87.0
1982-01-10 00:00:00 -12.8 85.8 -12.8 86.0 -12.8 85.8 -12.8 85.8
1982-01-10 06:00:00 -12.7 84.8 -12.5 85.1 -12.8 85.8 -12.7 84.8 -12.7 84.8
1982-01-10 12:00:00 -12.6 83.8 -12.3 84.2 -12.7 84.9 -12.6 83.8 -12.6 83.8
1982-01-10 18:00:00 -12.6 82.8 -12.3 83.1 -12.3 83.9 -12.6 82.8 -12.6 82.8
1982-01-11 00:00:00 -12.6 81.9 -12.3 82.0 -12.1 83.0 -12.6 81.9 -12.6 81.9
jtwc_sh bom reunion td9636 neumann
1982-01-11 06:00:00 -12.6 81.2 -12.3 81.2 -12.0 82.0 -12.6 81.3 -12.6 81.2
1982-01-11 12:00:00 -12.7 80.6 -12.5 80.3 -12.0 81.0 -12.7 80.6 -12.7 80.6
1982-01-11 18:00:00 -12.9 79.6 -12.0 79.9 -12.9 79.6 -12.9 79.6
1982-01-12 00:00:00 -13.2 78.5 -12.2 78.7 -13.2 78.5 -13.2 78.5
1982-01-12 06:00:00 -13.5 77.2 -13.0 77.3 -13.6 77.2 -13.5 77.2
1982-01-12 12:00:00 -14.0 75.9 -13.3 76.3 -14.0 75.9 -14.0 75.9
1982-01-12 18:00:00 -14.5 75.0 -13.8 75.3 -14.5 74.9 -14.5 75.0
1982-01-13 00:00:00 -15.1 74.0 -14.5 74.2 -15.1 74.0 -15.1 74.0
1982-01-13 06:00:00 -15.6 72.8 -15.0 73.2 -15.7 72.8 -15.6 72.8
1982-01-13 12:00:00 -16.2 71.6 -15.5 72.2 -16.2 71.6 -16.2 71.6
1982-01-13 18:00:00 -16.7 70.5 -16.0 71.2 -16.7 70.5 -16.7 70.5
1982-01-14 00:00:00 -17.1 69.5 -16.4 70.3 -17.1 69.5 -17.1 69.5
1982-01-14 06:00:00 -17.5 68.7 -17.0 69.4 -17.5 68.7 -17.5 68.7
1982-01-14 12:00:00 -17.9 68.0 -17.2 68.9 -17.9 68.0 -17.9 68.0
1982-01-14 18:00:00 -18.3 67.3 -17.1 68.1 -18.3 67.3 -18.3 67.3
1982-01-15 00:00:00 -18.7 66.6 -17.9 67.5 -18.7 66.6 -18.7 66.6
1982-01-15 06:00:00 -19.0 66.0 -18.2 66.8 -19.0 65.9 -19.0 66.0
1982-01-15 12:00:00 -19.2 65.4 -18.5 66.1 -19.2 65.4 -19.2 65.4
1982-01-15 18:00:00 -19.3 65.1 -18.9 65.3 -19.3 65.1 -19.3 65.1
1982-01-16 00:00:00 -19.4 64.7 -18.7 64.8 -19.4 64.7 -19.4 64.7
1982-01-16 06:00:00 -19.6 64.1 -18.6 64.4 -19.6 64.1 -19.6 64.1
1982-01-16 12:00:00 -19.7 63.4 -19.0 63.9 -19.7 63.4 -19.7 63.4
1982-01-16 18:00:00 -19.7 62.8 -19.0 63.0 -19.7 62.7 -19.7 62.8
1982-01-17 00:00:00 -19.7 62.1 -19.0 62.2 -19.7 62.1 -19.7 62.1
jtwc_sh bom reunion td9636 neumann
1982-01-17 06:00:00 -19.8 61.9 -19.0 61.5 -19.7 62.0 -19.8 61.9
1982-01-17 12:00:00 -19.9 61.8 -19.5 61.0 -19.9 61.8 -19.9 61.8
1982-01-17 18:00:00 -20.2 60.8 -20.0 60.2 -20.2 60.9 -20.2 60.8
1982-01-18 00:00:00 -20.7 59.9 -20.5 59.8 -20.7 59.9 -20.7 59.9
1982-01-18 06:00:00 -21.4 59.6 -21.3 59.3 -21.3 59.5 -21.4 59.6
1982-01-18 12:00:00 -22.0 59.4 -22.0 59.4 -22.0 59.4 -22.0 59.4
1982-01-18 18:00:00 -22.5 59.3 -22.5 59.5 -22.5 59.3 -22.5 59.3
1982-01-19 00:00:00 -23.0 59.2 -23.0 59.6 -23.0 59.2 -23.0 59.2
1982-01-19 06:00:00 -23.6 59.0 -23.7 59.7 -23.6 59.0 -23.6 59.0
1982-01-19 12:00:00 -24.2 58.8 -23.9 59.0 -24.2 58.8 -24.2 58.8
1982-01-19 18:00:00 -24.7 58.7 -24.1 58.4 -24.7 58.7 -24.7 58.7
1982-01-20 00:00:00 -25.2 58.6 -24.8 58.2 -25.2 58.6 -25.2 58.6
1982-01-20 06:00:00 -25.7 58.5 -25.6 57.9 -25.6 58.5 -25.7 58.5
1982-01-20 12:00:00 -26.2 58.4 -26.4 57.3 -26.2 58.4 -26.2 58.4
1982-01-20 18:00:00 -26.9 58.4 -27.3 57.1 -27.0 58.4 -26.9 58.4
1982-01-21 00:00:00 -28.0 58.5 -28.6 57.3 -28.0 58.5 -28.0 58.5
1982-01-21 06:00:00 -30.0 57.9
1982-01-21 12:00:00 -30.9 58.1
1982-01-21 18:00:00 -31.5 58.2
1982-01-22 00:00:00 -32.7 58.8
1982-01-22 06:00:00 -33.5 58.8
1982-01-22 12:00:00 -34.7 59.7
1982-01-22 18:00:00 -35.9 61.0
1982-01-23 00:00:00 -36.9 62.4
jtwc_sh bom reunion td9636 neumann
1982-01-23 06:00:00 -38.0 64.0

top of pageTrack Data:Intensity

jtwc_sh bom reunion td9636 neumann
Date Wind Pres Wind Pres Wind Pres Wind Pres Wind Pres
1982-01-05 00:00:00 1007.
1982-01-05 06:00:00 1006.
1982-01-05 12:00:00 1005.
1982-01-05 18:00:00 1004.
1982-01-06 00:00:00 20. 1003. 20. 20.
1982-01-06 06:00:00 25. 1003. 20. 25. 1001.
1982-01-06 12:00:00 25. 999. 25. 30. 999.
1982-01-06 18:00:00 25. 997. 25. 35. 997.
1982-01-07 00:00:00 25. 994. 25. 40. 994.
1982-01-07 06:00:00 25. 991. 25. 45. 991.
1982-01-07 12:00:00 30. 988. 30. 50. 988.
1982-01-07 18:00:00 30. 985. 30. 55. 985.
1982-01-08 00:00:00 35. 981. 35. 60. 981.
1982-01-08 06:00:00 35. 976. 35. 65. 976.
1982-01-08 12:00:00 35. 973. 35. 70. 973.
1982-01-08 18:00:00 35. 969. 35. 75. 969.
1982-01-09 00:00:00 40. 965. 40. 80. 965.
1982-01-09 06:00:00 45. 960. 40. 85. 960.
1982-01-09 12:00:00 55. 958. 55. 90. 958.
1982-01-09 18:00:00 60. 954. 55. 95. 954.
1982-01-10 00:00:00 65. 950. 65. 100. 950.
1982-01-10 06:00:00 70. 947. 92. 927. 65. 100. 947.
1982-01-10 12:00:00 75. 944. 75. 105. 944.
1982-01-10 18:00:00 80. 942. 75. 105. 942.
1982-01-11 00:00:00 85. 939. 85. 110. 939.
jtwc_sh bom reunion td9636 neumann
1982-01-11 06:00:00 90. 936. 92. 927. 85. 115. 936.
1982-01-11 12:00:00 95. 934. 95. 115. 934.
1982-01-11 18:00:00 100. 95. 110.
1982-01-12 00:00:00 105. 105. 105.
1982-01-12 06:00:00 110. 112. 898. 105. 110.
1982-01-12 12:00:00 115. 115. 115.
1982-01-12 18:00:00 120. 115. 120.
1982-01-13 00:00:00 120. 120. 120.
1982-01-13 06:00:00 115. 112. 898. 120. 115.
1982-01-13 12:00:00 110. 110. 110.
1982-01-13 18:00:00 110. 110. 110.
1982-01-14 00:00:00 115. 115. 115.
1982-01-14 06:00:00 115. 112. 898. 115. 115.
1982-01-14 12:00:00 115. 115. 115.
1982-01-14 18:00:00 115. 115. 115.
1982-01-15 00:00:00 110. 110. 110.
1982-01-15 06:00:00 105. 92. 927. 110. 105.
1982-01-15 12:00:00 100. 100. 100.
1982-01-15 18:00:00 95. 100. 95.
1982-01-16 00:00:00 90. 90. 90.
1982-01-16 06:00:00 85. 62. 966. 90. 85.
1982-01-16 12:00:00 80. 80. 80.
1982-01-16 18:00:00 70. 80. 70.
1982-01-17 00:00:00 65. 65. 65.
jtwc_sh bom reunion td9636 neumann
1982-01-17 06:00:00 65. 72. 954. 65. 65.
1982-01-17 12:00:00 60. 60. 60.
1982-01-17 18:00:00 60. 60. 60.
1982-01-18 00:00:00 55. 55. 55.
1982-01-18 06:00:00 50. 52. 976. 55. 50.
1982-01-18 12:00:00 45. 45. 45.
1982-01-18 18:00:00 45. 45. 45.
1982-01-19 00:00:00 40. 40. 40.
1982-01-19 06:00:00 40. 44. 984. 40. 40.
1982-01-19 12:00:00 35. 35. 35.
1982-01-19 18:00:00 35. 35. 35.
1982-01-20 00:00:00 30. 30. 30.
1982-01-20 06:00:00 30. 44. 984. 30. 30.
1982-01-20 12:00:00 25. 25. 25.
1982-01-20 18:00:00 25. 25. 25.
1982-01-21 00:00:00 25. 25. 25.
1982-01-21 06:00:00 44. 984.
1982-01-21 12:00:00
1982-01-21 18:00:00
1982-01-22 00:00:00
1982-01-22 06:00:00 44. 984.
1982-01-22 12:00:00
1982-01-22 18:00:00
1982-01-23 00:00:00
jtwc_sh bom reunion td9636 neumann
1982-01-23 06:00:00 44. 984.

top of page Links to source data

Source Source file Format
jtwc_sh bsh081982.txt ATCF
bom IDCKMSTM0S.csv:Line=14387:CHRIS CSV file (from Excel file)
reunion WMO-Best-Tracks.txt:Line=12259:damia WMO (old format)
td9636 cons_worldwide_trop_cyclone_18710101-19891231-005:Line=12222 TD 9636
neumann tracks.sh:Storm=630:CHRIS/DAMIA:BSH0882:JTWC&BM714 HURDAT